Skip Navigation LinksHome page > Weather > Current weather Skip Navigation Links

Current Weather

Eureka, Nunavut

For information only: do not use for flight planning or navigation.
Latest weather
Observation time Tuesday, September 2, 2014 4:00 PM CDT
Local time Tuesday, September 2, 2014 4:14 PM CDT
Flight conditions Visual Meteorological Conditions
Winds
Wind direction Southeast (140°)
Wind speed 8 mph
Visibility 15 mi.
Sky condition
Ceiling unlimited
Cloud layer few clouds 1,000 ft.
Temperature 36°F
Dewpoint 30°F
Altimeter 29.77 in.Hg
Derived measurements
Relative humidity 80%
Wind chill 29°F
Density altitude -1287 ft.
Sea-level pressure 29.77 in.Hg
METAR CWEU 022100Z 14007KT 15SM FEW010 02/M01 A2977 RMK ST1 SLP082

Settings

Location code

InnerDrive.Weather 4.0.5356.0 Release CLR 4.0.30319.34014
Copyright ©2014 Inner Drive Technology. All rights reserved. Portions Copyright ©1986-2014 David Braverman.

Find weather

Site navigation


Skip Navigation Links

Place info

Page info

PayPal - The safer, easier way to pay online!

Return home.

Copyright ©2014 Inner Drive Technology. Purveyors of fine, hand-crafted computer software. Page printed 2014-09-02T21:14:34 UTC.